Accueil
METAR-TAF:

METAR-TAF

Aéroports :

Ndjamena, Tchad

Aéroport international de Ndjamena

latitude: 12-08N, longitude: 015-02E, altitude: 295 m

Observation

Le bulletin a été fait il y a 40 minutes, à 18:00 UTC
Vent 5 kt de sud/sud-est, variant entre est/sud-est et sud
Température 37°C
Humidité 27%
Pression 1007 hPa
Visibilité: 6000 m

METAR: FTTJ 231800Z 15005KT 110V170 6000 NSC 37/15 Q1007 NOSIG

Heure: 19:40 (18:40 UTC)

Prévision

Le bulletin a été fait il y a 1 heure et 40 minutes, à 17:00 UTC
Prévision valable du 23 à 18 UTC au 24 à 24 UTC
Vent 6 kt de sud
Visibilité 10 km ou plus
pas de nuages en-dessous de 1500 mètres et pas de cumulonimbus.
Temporairement
du 24 à 14 UTC au 24 à 20 UTC
Vent 15 kt de direction variable avec des rafales jusqu'à 35 kt
Visibilité: 2000 m
orage, Chasse-poussière élevée

TAF: FTTJ 231700Z 2318/2424 18006KT CAVOK TEMPO 2414/2420 VRB15G35KT 2000 TS BLDU

Observations et prévisions météorologiques de plus de 4000 aéroports (messages METAR et TAF).

Les stations disponibles sont représentées par des disques jaunes et rouges sur la carte.

Passer la souris dessus pour voir le nom de la station.

Cliquer dessus pour voir les observations et prévisions météorologiques.

Pour changer de carte: cliquez sur les boutons verts avec une croix noire pour zoomer, sur le bouton vert avec un tiret pour effectuer un zoom arrière, ou sur les flèches vertes pour les cartes adjacentes.


METAR-TAF: